sensor_id;sensor_type;location;lat;lon;timestamp;P1;durP1;ratioP1;P2;durP2;ratioP2
6598;SDS011;3335;43.198;27.918;2022-07-29T00:00:11;6.07;;;4.30;;
6598;SDS011;3335;43.198;27.918;2022-07-29T00:02:38;7.50;;;4.43;;
6598;SDS011;3335;43.198;27.918;2022-07-29T00:05:05;7.53;;;4.70;;
6598;SDS011;3335;43.198;27.918;2022-07-29T00:07:34;7.63;;;4.60;;
6598;SDS011;3335;43.198;27.918;2022-07-29T00:10:01;9.93;;;4.90;;
6598;SDS011;3335;43.198;27.918;2022-07-29T00:12:28;6.30;;;3.97;;
6598;SDS011;3335;43.198;27.918;2022-07-29T00:14:56;5.93;;;4.73;;
6598;SDS011;3335;43.198;27.918;2022-07-29T00:17:23;6.73;;;4.70;;
6598;SDS011;3335;43.198;27.918;2022-07-29T00:19:51;5.67;;;4.30;;
6598;SDS011;3335;43.198;27.918;2022-07-29T00:22:18;6.93;;;4.30;;
6598;SDS011;3335;43.198;27.918;2022-07-29T00:24:46;14.67;;;5.47;;
6598;SDS011;3335;43.198;27.918;2022-07-29T00:27:13;7.70;;;4.13;;
6598;SDS011;3335;43.198;27.918;2022-07-29T00:29:40;8.80;;;4.50;;
6598;SDS011;3335;43.198;27.918;2022-07-29T00:32:08;4.93;;;4.23;;
6598;SDS011;3335;43.198;27.918;2022-07-29T00:34:35;6.57;;;4.53;;
6598;SDS011;3335;43.198;27.918;2022-07-29T00:37:20;7.13;;;4.90;;
6598;SDS011;3335;43.198;27.918;2022-07-29T00:39:46;8.27;;;4.80;;
6598;SDS011;3335;43.198;27.918;2022-07-29T00:42:13;11.60;;;6.17;;
6598;SDS011;3335;43.198;27.918;2022-07-29T00:44:41;9.90;;;5.20;;
6598;SDS011;3335;43.198;27.918;2022-07-29T00:47:10;11.50;;;5.50;;
6598;SDS011;3335;43.198;27.918;2022-07-29T00:49:38;10.53;;;6.30;;
6598;SDS011;3335;43.198;27.918;2022-07-29T00:52:06;9.83;;;5.90;;
6598;SDS011;3335;43.198;27.918;2022-07-29T00:54:34;14.00;;;5.73;;
6598;SDS011;3335;43.198;27.918;2022-07-29T00:57:01;10.53;;;6.27;;
6598;SDS011;3335;43.198;27.918;2022-07-29T00:59:28;10.97;;;6.10;;
6598;SDS011;3335;43.198;27.918;2022-07-29T01:01:55;8.17;;;6.63;;
6598;SDS011;3335;43.198;27.918;2022-07-29T01:04:24;10.83;;;6.83;;
6598;SDS011;3335;43.198;27.918;2022-07-29T01:06:51;12.83;;;6.17;;
6598;SDS011;3335;43.198;27.918;2022-07-29T01:09:18;12.13;;;6.03;;
6598;SDS011;3335;43.198;27.918;2022-07-29T01:11:46;13.63;;;6.80;;
6598;SDS011;3335;43.198;27.918;2022-07-29T01:14:14;15.33;;;6.90;;
6598;SDS011;3335;43.198;27.918;2022-07-29T01:16:42;12.23;;;7.13;;
6598;SDS011;3335;43.198;27.918;2022-07-29T01:19:18;11.30;;;6.70;;
6598;SDS011;3335;43.198;27.918;2022-07-29T01:22:00;15.07;;;7.67;;
6598;SDS011;3335;43.198;27.918;2022-07-29T01:24:50;13.87;;;6.97;;
6598;SDS011;3335;43.198;27.918;2022-07-29T01:27:42;13.93;;;7.93;;
6598;SDS011;3335;43.198;27.918;2022-07-29T01:30:19;14.30;;;8.60;;
6598;SDS011;3335;43.198;27.918;2022-07-29T01:32:50;12.63;;;7.90;;
6598;SDS011;3335;43.198;27.918;2022-07-29T01:35:23;14.17;;;8.07;;
6598;SDS011;3335;43.198;27.918;2022-07-29T01:37:55;15.20;;;7.47;;
6598;SDS011;3335;43.198;27.918;2022-07-29T01:40:27;16.33;;;7.70;;
6598;SDS011;3335;43.198;27.918;2022-07-29T01:42:55;21.53;;;8.13;;
6598;SDS011;3335;43.198;27.918;2022-07-29T01:45:27;16.93;;;7.17;;
6598;SDS011;3335;43.198;27.918;2022-07-29T01:48:00;14.53;;;7.13;;
6598;SDS011;3335;43.198;27.918;2022-07-29T01:50:33;11.73;;;6.73;;
6598;SDS011;3335;43.198;27.918;2022-07-29T01:53:03;14.23;;;7.07;;
6598;SDS011;3335;43.198;27.918;2022-07-29T01:55:34;14.40;;;7.00;;
6598;SDS011;3335;43.198;27.918;2022-07-29T01:58:05;16.90;;;7.90;;
6598;SDS011;3335;43.198;27.918;2022-07-29T02:00:34;12.57;;;7.83;;
6598;SDS011;3335;43.198;27.918;2022-07-29T02:03:03;18.00;;;7.97;;
6598;SDS011;3335;43.198;27.918;2022-07-29T02:05:35;11.97;;;7.57;;
6598;SDS011;3335;43.198;27.918;2022-07-29T02:08:04;20.23;;;8.30;;
6598;SDS011;3335;43.198;27.918;2022-07-29T02:10:33;20.53;;;10.37;;
6598;SDS011;3335;43.198;27.918;2022-07-29T02:13:01;18.10;;;8.77;;
6598;SDS011;3335;43.198;27.918;2022-07-29T02:15:31;17.67;;;9.13;;
6598;SDS011;3335;43.198;27.918;2022-07-29T02:18:02;24.27;;;10.80;;
6598;SDS011;3335;43.198;27.918;2022-07-29T02:20:34;23.80;;;10.50;;
6598;SDS011;3335;43.198;27.918;2022-07-29T02:23:01;16.50;;;8.83;;
6598;SDS011;3335;43.198;27.918;2022-07-29T02:25:29;25.33;;;11.13;;
6598;SDS011;3335;43.198;27.918;2022-07-29T02:27:57;23.60;;;9.97;;
6598;SDS011;3335;43.198;27.918;2022-07-29T02:30:26;24.33;;;9.33;;
6598;SDS011;3335;43.198;27.918;2022-07-29T02:32:55;29.43;;;10.30;;
6598;SDS011;3335;43.198;27.918;2022-07-29T02:35:25;20.60;;;10.33;;
6598;SDS011;3335;43.198;27.918;2022-07-29T02:37:53;23.07;;;10.80;;
6598;SDS011;3335;43.198;27.918;2022-07-29T02:40:38;24.27;;;12.47;;
6598;SDS011;3335;43.198;27.918;2022-07-29T02:43:08;17.33;;;10.17;;
6598;SDS011;3335;43.198;27.918;2022-07-29T02:45:37;18.97;;;10.07;;
6598;SDS011;3335;43.198;27.918;2022-07-29T02:48:05;17.93;;;10.13;;
6598;SDS011;3335;43.198;27.918;2022-07-29T02:50:38;18.43;;;10.00;;
6598;SDS011;3335;43.198;27.918;2022-07-29T02:53:12;22.87;;;9.47;;
6598;SDS011;3335;43.198;27.918;2022-07-29T02:55:43;16.83;;;10.33;;
6598;SDS011;3335;43.198;27.918;2022-07-29T02:58:13;17.40;;;10.47;;
6598;SDS011;3335;43.198;27.918;2022-07-29T03:00:48;23.03;;;10.13;;
6598;SDS011;3335;43.198;27.918;2022-07-29T03:03:17;22.57;;;9.80;;
6598;SDS011;3335;43.198;27.918;2022-07-29T03:05:46;27.90;;;11.60;;
6598;SDS011;3335;43.198;27.918;2022-07-29T03:08:13;19.10;;;10.17;;
6598;SDS011;3335;43.198;27.918;2022-07-29T03:10:43;23.90;;;10.87;;
6598;SDS011;3335;43.198;27.918;2022-07-29T03:13:12;20.30;;;10.90;;
6598;SDS011;3335;43.198;27.918;2022-07-29T03:15:40;18.87;;;10.10;;
6598;SDS011;3335;43.198;27.918;2022-07-29T03:18:09;27.30;;;10.63;;
6598;SDS011;3335;43.198;27.918;2022-07-29T03:20:36;23.37;;;10.23;;
6598;SDS011;3335;43.198;27.918;2022-07-29T03:23:05;20.40;;;10.47;;
6598;SDS011;3335;43.198;27.918;2022-07-29T03:25:32;21.97;;;10.17;;
6598;SDS011;3335;43.198;27.918;2022-07-29T03:27:59;18.70;;;10.40;;
6598;SDS011;3335;43.198;27.918;2022-07-29T03:30:26;16.90;;;10.00;;
6598;SDS011;3335;43.198;27.918;2022-07-29T03:32:55;23.47;;;9.97;;
6598;SDS011;3335;43.198;27.918;2022-07-29T03:35:22;22.93;;;9.20;;
6598;SDS011;3335;43.198;27.918;2022-07-29T03:37:49;20.73;;;10.40;;
6598;SDS011;3335;43.198;27.918;2022-07-29T03:40:18;15.00;;;9.40;;
6598;SDS011;3335;43.198;27.918;2022-07-29T03:42:48;16.20;;;8.83;;
6598;SDS011;3335;43.198;27.918;2022-07-29T03:45:18;18.80;;;8.70;;
6598;SDS011;3335;43.198;27.918;2022-07-29T03:47:47;15.57;;;8.60;;
6598;SDS011;3335;43.198;27.918;2022-07-29T03:50:16;19.07;;;8.10;;
6598;SDS011;3335;43.198;27.918;2022-07-29T03:52:46;13.53;;;8.20;;
6598;SDS011;3335;43.198;27.918;2022-07-29T03:55:14;13.80;;;8.97;;
6598;SDS011;3335;43.198;27.918;2022-07-29T03:57:42;19.80;;;7.73;;
6598;SDS011;3335;43.198;27.918;2022-07-29T04:00:11;19.43;;;8.03;;
6598;SDS011;3335;43.198;27.918;2022-07-29T04:02:40;15.27;;;8.13;;
6598;SDS011;3335;43.198;27.918;2022-07-29T04:05:11;13.93;;;7.93;;
6598;SDS011;3335;43.198;27.918;2022-07-29T04:07:38;13.73;;;8.17;;
6598;SDS011;3335;43.198;27.918;2022-07-29T04:10:06;19.53;;;8.83;;
6598;SDS011;3335;43.198;27.918;2022-07-29T04:12:34;18.33;;;7.90;;
6598;SDS011;3335;43.198;27.918;2022-07-29T04:15:02;13.23;;;8.30;;
6598;SDS011;3335;43.198;27.918;2022-07-29T04:17:30;16.43;;;8.30;;
6598;SDS011;3335;43.198;27.918;2022-07-29T04:19:57;14.03;;;7.63;;
6598;SDS011;3335;43.198;27.918;2022-07-29T04:22:24;12.93;;;7.33;;
6598;SDS011;3335;43.198;27.918;2022-07-29T04:24:51;19.10;;;8.10;;
6598;SDS011;3335;43.198;27.918;2022-07-29T04:27:18;12.03;;;7.20;;
6598;SDS011;3335;43.198;27.918;2022-07-29T04:29:45;15.80;;;7.53;;
6598;SDS011;3335;43.198;27.918;2022-07-29T04:32:13;13.40;;;7.73;;
6598;SDS011;3335;43.198;27.918;2022-07-29T04:34:40;12.80;;;7.13;;
6598;SDS011;3335;43.198;27.918;2022-07-29T04:37:07;8.20;;;6.47;;
6598;SDS011;3335;43.198;27.918;2022-07-29T04:39:34;15.30;;;7.07;;
6598;SDS011;3335;43.198;27.918;2022-07-29T04:42:01;14.37;;;6.30;;
6598;SDS011;3335;43.198;27.918;2022-07-29T04:44:27;16.80;;;7.07;;
6598;SDS011;3335;43.198;27.918;2022-07-29T04:46:55;11.97;;;6.20;;
6598;SDS011;3335;43.198;27.918;2022-07-29T04:49:24;8.67;;;6.37;;
6598;SDS011;3335;43.198;27.918;2022-07-29T04:51:51;17.03;;;7.50;;
6598;SDS011;3335;43.198;27.918;2022-07-29T04:54:18;11.80;;;6.97;;
6598;SDS011;3335;43.198;27.918;2022-07-29T04:56:44;11.10;;;6.50;;
6598;SDS011;3335;43.198;27.918;2022-07-29T04:59:12;9.80;;;6.60;;
6598;SDS011;3335;43.198;27.918;2022-07-29T05:01:38;13.87;;;7.23;;
6598;SDS011;3335;43.198;27.918;2022-07-29T05:04:05;9.33;;;6.30;;
6598;SDS011;3335;43.198;27.918;2022-07-29T05:06:34;9.60;;;6.23;;
6598;SDS011;3335;43.198;27.918;2022-07-29T05:09:00;11.50;;;5.50;;
6598;SDS011;3335;43.198;27.918;2022-07-29T05:11:27;9.73;;;5.70;;
6598;SDS011;3335;43.198;27.918;2022-07-29T05:13:54;8.97;;;6.20;;
6598;SDS011;3335;43.198;27.918;2022-07-29T05:16:21;9.93;;;5.67;;
6598;SDS011;3335;43.198;27.918;2022-07-29T05:18:48;11.93;;;5.77;;
6598;SDS011;3335;43.198;27.918;2022-07-29T05:21:15;10.93;;;6.57;;
6598;SDS011;3335;43.198;27.918;2022-07-29T05:23:43;9.03;;;5.70;;
6598;SDS011;3335;43.198;27.918;2022-07-29T05:26:10;10.77;;;5.67;;
6598;SDS011;3335;43.198;27.918;2022-07-29T05:28:37;10.47;;;5.30;;
6598;SDS011;3335;43.198;27.918;2022-07-29T05:31:04;10.00;;;5.50;;
6598;SDS011;3335;43.198;27.918;2022-07-29T05:33:31;15.50;;;5.83;;
6598;SDS011;3335;43.198;27.918;2022-07-29T05:35:58;8.30;;;5.00;;
6598;SDS011;3335;43.198;27.918;2022-07-29T05:38:25;10.33;;;5.43;;
6598;SDS011;3335;43.198;27.918;2022-07-29T05:40:55;7.67;;;4.57;;
6598;SDS011;3335;43.198;27.918;2022-07-29T05:43:23;6.40;;;4.80;;
6598;SDS011;3335;43.198;27.918;2022-07-29T05:45:49;8.83;;;4.77;;
6598;SDS011;3335;43.198;27.918;2022-07-29T05:48:16;8.80;;;4.77;;
6598;SDS011;3335;43.198;27.918;2022-07-29T05:50:43;10.43;;;4.70;;
6598;SDS011;3335;43.198;27.918;2022-07-29T05:53:10;8.17;;;4.43;;
6598;SDS011;3335;43.198;27.918;2022-07-29T05:55:37;17.13;;;4.57;;
6598;SDS011;3335;43.198;27.918;2022-07-29T05:58:05;8.70;;;5.20;;
6598;SDS011;3335;43.198;27.918;2022-07-29T06:00:32;8.33;;;4.43;;
6598;SDS011;3335;43.198;27.918;2022-07-29T06:02:59;6.30;;;4.33;;
6598;SDS011;3335;43.198;27.918;2022-07-29T06:05:26;8.63;;;4.10;;
6598;SDS011;3335;43.198;27.918;2022-07-29T06:07:53;5.77;;;4.70;;
6598;SDS011;3335;43.198;27.918;2022-07-29T06:10:20;6.73;;;4.77;;
6598;SDS011;3335;43.198;27.918;2022-07-29T06:12:47;4.80;;;4.23;;
6598;SDS011;3335;43.198;27.918;2022-07-29T06:15:15;7.70;;;3.43;;
6598;SDS011;3335;43.198;27.918;2022-07-29T06:17:42;8.93;;;3.93;;
6598;SDS011;3335;43.198;27.918;2022-07-29T06:20:09;5.80;;;4.10;;
6598;SDS011;3335;43.198;27.918;2022-07-29T06:22:37;4.80;;;3.60;;
6598;SDS011;3335;43.198;27.918;2022-07-29T06:25:04;8.93;;;3.93;;
6598;SDS011;3335;43.198;27.918;2022-07-29T06:27:31;7.03;;;3.37;;
6598;SDS011;3335;43.198;27.918;2022-07-29T06:29:58;3.40;;;3.10;;
6598;SDS011;3335;43.198;27.918;2022-07-29T06:32:28;4.33;;;3.23;;
6598;SDS011;3335;43.198;27.918;2022-07-29T06:34:56;4.83;;;3.00;;
6598;SDS011;3335;43.198;27.918;2022-07-29T06:37:23;7.10;;;3.47;;
6598;SDS011;3335;43.198;27.918;2022-07-29T06:39:50;7.53;;;3.33;;
6598;SDS011;3335;43.198;27.918;2022-07-29T06:42:37;3.90;;;3.10;;
6598;SDS011;3335;43.198;27.918;2022-07-29T06:45:08;5.50;;;3.47;;
6598;SDS011;3335;43.198;27.918;2022-07-29T06:47:37;7.93;;;4.40;;
6598;SDS011;3335;43.198;27.918;2022-07-29T06:50:04;12.10;;;4.17;;
6598;SDS011;3335;43.198;27.918;2022-07-29T06:52:31;15.10;;;4.70;;
6598;SDS011;3335;43.198;27.918;2022-07-29T06:54:58;14.17;;;4.70;;
6598;SDS011;3335;43.198;27.918;2022-07-29T06:57:25;10.60;;;5.00;;
6598;SDS011;3335;43.198;27.918;2022-07-29T06:59:52;8.33;;;4.27;;
6598;SDS011;3335;43.198;27.918;2022-07-29T07:02:19;16.07;;;5.03;;
6598;SDS011;3335;43.198;27.918;2022-07-29T07:04:47;13.03;;;4.60;;
6598;SDS011;3335;43.198;27.918;2022-07-29T07:07:14;11.63;;;4.67;;
6598;SDS011;3335;43.198;27.918;2022-07-29T07:09:41;6.50;;;3.90;;
6598;SDS011;3335;43.198;27.918;2022-07-29T07:12:08;6.60;;;3.97;;
6598;SDS011;3335;43.198;27.918;2022-07-29T07:14:35;7.40;;;3.23;;
6598;SDS011;3335;43.198;27.918;2022-07-29T07:17:02;3.90;;;2.90;;
6598;SDS011;3335;43.198;27.918;2022-07-29T07:19:29;6.80;;;3.33;;
6598;SDS011;3335;43.198;27.918;2022-07-29T07:21:57;6.73;;;3.93;;
6598;SDS011;3335;43.198;27.918;2022-07-29T07:24:24;8.43;;;3.30;;
6598;SDS011;3335;43.198;27.918;2022-07-29T07:26:51;5.10;;;3.67;;
6598;SDS011;3335;43.198;27.918;2022-07-29T07:29:18;8.70;;;3.27;;
6598;SDS011;3335;43.198;27.918;2022-07-29T07:31:45;6.80;;;2.90;;
6598;SDS011;3335;43.198;27.918;2022-07-29T07:34:12;6.23;;;2.70;;
6598;SDS011;3335;43.198;27.918;2022-07-29T07:36:39;4.57;;;2.70;;
6598;SDS011;3335;43.198;27.918;2022-07-29T07:39:07;3.27;;;2.40;;
6598;SDS011;3335;43.198;27.918;2022-07-29T07:41:34;5.13;;;3.17;;
6598;SDS011;3335;43.198;27.918;2022-07-29T07:44:01;5.97;;;3.00;;
6598;SDS011;3335;43.198;27.918;2022-07-29T07:46:28;2.60;;;2.40;;
6598;SDS011;3335;43.198;27.918;2022-07-29T07:48:55;3.90;;;2.30;;
6598;SDS011;3335;43.198;27.918;2022-07-29T07:51:22;2.77;;;2.50;;
6598;SDS011;3335;43.198;27.918;2022-07-29T07:53:49;6.37;;;3.23;;
6598;SDS011;3335;43.198;27.918;2022-07-29T07:56:17;5.03;;;2.50;;
6598;SDS011;3335;43.198;27.918;2022-07-29T07:58:44;5.67;;;3.00;;
6598;SDS011;3335;43.198;27.918;2022-07-29T08:01:11;2.67;;;2.47;;
6598;SDS011;3335;43.198;27.918;2022-07-29T08:03:38;4.93;;;2.50;;
6598;SDS011;3335;43.198;27.918;2022-07-29T08:06:05;5.67;;;2.67;;
6598;SDS011;3335;43.198;27.918;2022-07-29T08:08:32;4.80;;;2.53;;
6598;SDS011;3335;43.198;27.918;2022-07-29T08:10:59;4.80;;;2.53;;
6598;SDS011;3335;43.198;27.918;2022-07-29T08:13:28;7.73;;;3.10;;
6598;SDS011;3335;43.198;27.918;2022-07-29T08:15:56;5.80;;;3.07;;
6598;SDS011;3335;43.198;27.918;2022-07-29T08:18:26;7.87;;;2.50;;
6598;SDS011;3335;43.198;27.918;2022-07-29T08:20:54;5.10;;;2.70;;
6598;SDS011;3335;43.198;27.918;2022-07-29T08:23:21;3.47;;;2.43;;
6598;SDS011;3335;43.198;27.918;2022-07-29T08:25:49;4.90;;;2.40;;
6598;SDS011;3335;43.198;27.918;2022-07-29T08:28:16;2.83;;;2.53;;
6598;SDS011;3335;43.198;27.918;2022-07-29T08:30:45;5.90;;;2.57;;
6598;SDS011;3335;43.198;27.918;2022-07-29T08:33:12;11.77;;;2.77;;
6598;SDS011;3335;43.198;27.918;2022-07-29T08:35:39;5.27;;;2.67;;
6598;SDS011;3335;43.198;27.918;2022-07-29T08:38:06;5.23;;;2.67;;
6598;SDS011;3335;43.198;27.918;2022-07-29T08:40:33;2.88;;;2.60;;
6598;SDS011;3335;43.198;27.918;2022-07-29T08:43:04;9.97;;;2.83;;
6598;SDS011;3335;43.198;27.918;2022-07-29T08:45:34;3.13;;;2.10;;
6598;SDS011;3335;43.198;27.918;2022-07-29T08:48:10;5.43;;;2.80;;
6598;SDS011;3335;43.198;27.918;2022-07-29T08:50:38;4.93;;;2.70;;
6598;SDS011;3335;43.198;27.918;2022-07-29T08:53:05;4.10;;;2.40;;
6598;SDS011;3335;43.198;27.918;2022-07-29T08:55:39;9.82;;;2.45;;
6598;SDS011;3335;43.198;27.918;2022-07-29T08:58:10;6.93;;;2.60;;
6598;SDS011;3335;43.198;27.918;2022-07-29T09:00:40;4.07;;;2.80;;
6598;SDS011;3335;43.198;27.918;2022-07-29T09:03:10;5.05;;;2.58;;
6598;SDS011;3335;43.198;27.918;2022-07-29T09:05:41;3.03;;;2.42;;
6598;SDS011;3335;43.198;27.918;2022-07-29T09:08:08;3.78;;;2.72;;
6598;SDS011;3335;43.198;27.918;2022-07-29T09:10:36;11.13;;;2.90;;
6598;SDS011;3335;43.198;27.918;2022-07-29T09:13:03;5.47;;;2.65;;
6598;SDS011;3335;43.198;27.918;2022-07-29T09:15:30;4.55;;;2.80;;
6598;SDS011;3335;43.198;27.918;2022-07-29T09:17:57;7.47;;;3.03;;
6598;SDS011;3335;43.198;27.918;2022-07-29T09:20:26;4.88;;;2.67;;
6598;SDS011;3335;43.198;27.918;2022-07-29T09:23:13;5.50;;;2.92;;
6598;SDS011;3335;43.198;27.918;2022-07-29T09:25:40;7.30;;;2.97;;
6598;SDS011;3335;43.198;27.918;2022-07-29T09:28:08;5.32;;;2.75;;
6598;SDS011;3335;43.198;27.918;2022-07-29T09:30:35;4.20;;;2.30;;
6598;SDS011;3335;43.198;27.918;2022-07-29T09:33:15;3.78;;;2.65;;
6598;SDS011;3335;43.198;27.918;2022-07-29T09:35:44;8.10;;;2.92;;
6598;SDS011;3335;43.198;27.918;2022-07-29T09:38:11;9.80;;;3.13;;
6598;SDS011;3335;43.198;27.918;2022-07-29T09:40:38;7.22;;;2.65;;
6598;SDS011;3335;43.198;27.918;2022-07-29T09:43:11;6.85;;;2.65;;
6598;SDS011;3335;43.198;27.918;2022-07-29T09:45:39;3.55;;;2.80;;
6598;SDS011;3335;43.198;27.918;2022-07-29T09:48:13;5.55;;;2.83;;
6598;SDS011;3335;43.198;27.918;2022-07-29T09:50:42;3.55;;;2.95;;
6598;SDS011;3335;43.198;27.918;2022-07-29T09:53:29;4.05;;;3.40;;
6598;SDS011;3335;43.198;27.918;2022-07-29T09:55:58;3.30;;;2.72;;
6598;SDS011;3335;43.198;27.918;2022-07-29T09:58:25;9.35;;;3.90;;
6598;SDS011;3335;43.198;27.918;2022-07-29T10:00:52;5.72;;;2.45;;
6598;SDS011;3335;43.198;27.918;2022-07-29T10:03:20;3.95;;;2.63;;
6598;SDS011;3335;43.198;27.918;2022-07-29T10:08:42;4.32;;;2.30;;
6598;SDS011;3335;43.198;27.918;2022-07-29T10:11:09;4.38;;;2.70;;
6598;SDS011;3335;43.198;27.918;2022-07-29T10:13:37;6.63;;;2.67;;
6598;SDS011;3335;43.198;27.918;2022-07-29T10:16:05;5.20;;;2.97;;
6598;SDS011;3335;43.198;27.918;2022-07-29T10:18:33;6.07;;;3.00;;
6598;SDS011;3335;43.198;27.918;2022-07-29T10:21:00;5.05;;;2.80;;
6598;SDS011;3335;43.198;27.918;2022-07-29T10:23:27;4.88;;;3.20;;
6598;SDS011;3335;43.198;27.918;2022-07-29T10:25:57;3.45;;;2.65;;
6598;SDS011;3335;43.198;27.918;2022-07-29T10:28:24;3.60;;;2.45;;
6598;SDS011;3335;43.198;27.918;2022-07-29T10:30:51;3.90;;;2.42;;
6598;SDS011;3335;43.198;27.918;2022-07-29T10:33:29;6.85;;;2.70;;
6598;SDS011;3335;43.198;27.918;2022-07-29T10:36:10;7.22;;;2.65;;
6598;SDS011;3335;43.198;27.918;2022-07-29T10:38:51;2.72;;;2.13;;
6598;SDS011;3335;43.198;27.918;2022-07-29T10:41:33;3.65;;;2.50;;
6598;SDS011;3335;43.198;27.918;2022-07-29T10:44:08;7.90;;;2.78;;
6598;SDS011;3335;43.198;27.918;2022-07-29T10:46:39;4.53;;;2.38;;
6598;SDS011;3335;43.198;27.918;2022-07-29T10:49:07;6.28;;;2.15;;
6598;SDS011;3335;43.198;27.918;2022-07-29T10:51:55;5.65;;;2.13;;
6598;SDS011;3335;43.198;27.918;2022-07-29T10:54:37;3.03;;;2.03;;
6598;SDS011;3335;43.198;27.918;2022-07-29T10:57:12;2.90;;;2.40;;
6598;SDS011;3335;43.198;27.918;2022-07-29T10:59:40;4.60;;;2.20;;
6598;SDS011;3335;43.198;27.918;2022-07-29T11:05:07;4.97;;;2.05;;
6598;SDS011;3335;43.198;27.918;2022-07-29T11:07:36;3.42;;;2.08;;
6598;SDS011;3335;43.198;27.918;2022-07-29T11:10:19;6.03;;;2.50;;
6598;SDS011;3335;43.198;27.918;2022-07-29T11:12:48;3.35;;;2.05;;
6598;SDS011;3335;43.198;27.918;2022-07-29T11:15:17;3.13;;;2.35;;
6598;SDS011;3335;43.198;27.918;2022-07-29T11:20:41;6.55;;;2.47;;
6598;SDS011;3335;43.198;27.918;2022-07-29T11:23:19;2.65;;;2.40;;
6598;SDS011;3335;43.198;27.918;2022-07-29T11:28:54;4.38;;;2.90;;
6598;SDS011;3335;43.198;27.918;2022-07-29T11:31:33;4.00;;;2.90;;
6598;SDS011;3335;43.198;27.918;2022-07-29T11:42:39;6.53;;;2.40;;
6598;SDS011;3335;43.198;27.918;2022-07-29T11:45:09;3.42;;;2.30;;
6598;SDS011;3335;43.198;27.918;2022-07-29T11:47:39;3.85;;;2.35;;
6598;SDS011;3335;43.198;27.918;2022-07-29T11:50:08;4.53;;;2.75;;
6598;SDS011;3335;43.198;27.918;2022-07-29T11:52:40;5.30;;;3.15;;
6598;SDS011;3335;43.198;27.918;2022-07-29T11:55:12;7.57;;;2.40;;
6598;SDS011;3335;43.198;27.918;2022-07-29T11:57:47;5.05;;;2.65;;
6598;SDS011;3335;43.198;27.918;2022-07-29T12:00:23;4.07;;;2.25;;
6598;SDS011;3335;43.198;27.918;2022-07-29T12:02:55;2.90;;;2.60;;
6598;SDS011;3335;43.198;27.918;2022-07-29T12:05:30;4.15;;;2.55;;
6598;SDS011;3335;43.198;27.918;2022-07-29T12:08:07;4.40;;;2.30;;
6598;SDS011;3335;43.198;27.918;2022-07-29T12:10:36;4.50;;;2.45;;
6598;SDS011;3335;43.198;27.918;2022-07-29T12:13:03;7.78;;;2.50;;
6598;SDS011;3335;43.198;27.918;2022-07-29T12:15:31;3.30;;;2.42;;
6598;SDS011;3335;43.198;27.918;2022-07-29T12:18:08;3.17;;;2.00;;
6598;SDS011;3335;43.198;27.918;2022-07-29T12:20:36;5.43;;;2.38;;
6598;SDS011;3335;43.198;27.918;2022-07-29T12:23:04;9.85;;;2.97;;
6598;SDS011;3335;43.198;27.918;2022-07-29T12:25:33;6.72;;;2.80;;
6598;SDS011;3335;43.198;27.918;2022-07-29T12:28:01;46.85;;;5.38;;
6598;SDS011;3335;43.198;27.918;2022-07-29T12:30:38;7.38;;;2.75;;
6598;SDS011;3335;43.198;27.918;2022-07-29T12:33:14;9.00;;;3.00;;
6598;SDS011;3335;43.198;27.918;2022-07-29T12:35:43;7.25;;;2.85;;
6598;SDS011;3335;43.198;27.918;2022-07-29T12:38:11;3.47;;;2.53;;
6598;SDS011;3335;43.198;27.918;2022-07-29T12:40:39;5.68;;;2.97;;
6598;SDS011;3335;43.198;27.918;2022-07-29T12:43:10;6.00;;;2.78;;
6598;SDS011;3335;43.198;27.918;2022-07-29T12:45:41;5.45;;;3.15;;
6598;SDS011;3335;43.198;27.918;2022-07-29T12:48:09;3.72;;;2.55;;
6598;SDS011;3335;43.198;27.918;2022-07-29T12:50:47;5.13;;;3.05;;
6598;SDS011;3335;43.198;27.918;2022-07-29T12:53:19;4.40;;;2.67;;
6598;SDS011;3335;43.198;27.918;2022-07-29T12:55:47;6.68;;;2.95;;
6598;SDS011;3335;43.198;27.918;2022-07-29T12:58:26;8.60;;;3.15;;
6598;SDS011;3335;43.198;27.918;2022-07-29T13:01:00;6.47;;;2.80;;
6598;SDS011;3335;43.198;27.918;2022-07-29T13:03:42;4.40;;;2.25;;
6598;SDS011;3335;43.198;27.918;2022-07-29T13:06:29;3.55;;;2.90;;
6598;SDS011;3335;43.198;27.918;2022-07-29T13:09:03;6.28;;;2.85;;
6598;SDS011;3335;43.198;27.918;2022-07-29T13:11:32;4.68;;;2.65;;
6598;SDS011;3335;43.198;27.918;2022-07-29T13:14:00;6.75;;;2.20;;
6598;SDS011;3335;43.198;27.918;2022-07-29T13:16:29;5.72;;;2.80;;
6598;SDS011;3335;43.198;27.918;2022-07-29T13:19:09;5.90;;;2.55;;
6598;SDS011;3335;43.198;27.918;2022-07-29T13:21:38;4.20;;;2.80;;
6598;SDS011;3335;43.198;27.918;2022-07-29T13:24:05;8.07;;;3.03;;
6598;SDS011;3335;43.198;27.918;2022-07-29T13:26:33;4.63;;;3.30;;
6598;SDS011;3335;43.198;27.918;2022-07-29T13:29:01;4.18;;;2.80;;
6598;SDS011;3335;43.198;27.918;2022-07-29T13:31:30;6.28;;;2.78;;
6598;SDS011;3335;43.198;27.918;2022-07-29T13:33:57;3.65;;;2.67;;
6598;SDS011;3335;43.198;27.918;2022-07-29T13:36:23;8.30;;;2.83;;
6598;SDS011;3335;43.198;27.918;2022-07-29T13:38:51;4.80;;;2.78;;
6598;SDS011;3335;43.198;27.918;2022-07-29T13:41:18;4.28;;;3.13;;
6598;SDS011;3335;43.198;27.918;2022-07-29T13:43:45;8.80;;;3.08;;
6598;SDS011;3335;43.198;27.918;2022-07-29T13:46:12;7.35;;;3.22;;
6598;SDS011;3335;43.198;27.918;2022-07-29T13:48:40;2.75;;;2.55;;
6598;SDS011;3335;43.198;27.918;2022-07-29T13:51:07;6.07;;;2.65;;
6598;SDS011;3335;43.198;27.918;2022-07-29T13:53:34;55.67;;;9.38;;
6598;SDS011;3335;43.198;27.918;2022-07-29T13:56:01;9.50;;;3.15;;
6598;SDS011;3335;43.198;27.918;2022-07-29T13:58:30;6.75;;;2.55;;
6598;SDS011;3335;43.198;27.918;2022-07-29T14:00:57;4.25;;;2.85;;
6598;SDS011;3335;43.198;27.918;2022-07-29T14:03:24;5.97;;;3.10;;
6598;SDS011;3335;43.198;27.918;2022-07-29T14:05:53;4.95;;;3.00;;
6598;SDS011;3335;43.198;27.918;2022-07-29T14:08:21;5.35;;;2.55;;
6598;SDS011;3335;43.198;27.918;2022-07-29T14:10:48;7.97;;;2.72;;
6598;SDS011;3335;43.198;27.918;2022-07-29T14:13:15;2.78;;;2.58;;
6598;SDS011;3335;43.198;27.918;2022-07-29T14:15:42;9.38;;;3.20;;
6598;SDS011;3335;43.198;27.918;2022-07-29T14:18:08;10.70;;;3.20;;
6598;SDS011;3335;43.198;27.918;2022-07-29T14:20:35;6.20;;;3.60;;
6598;SDS011;3335;43.198;27.918;2022-07-29T14:23:04;6.55;;;3.35;;
6598;SDS011;3335;43.198;27.918;2022-07-29T14:25:31;8.13;;;3.47;;
6598;SDS011;3335;43.198;27.918;2022-07-29T14:27:57;5.32;;;2.63;;
6598;SDS011;3335;43.198;27.918;2022-07-29T14:30:24;5.13;;;2.95;;
6598;SDS011;3335;43.198;27.918;2022-07-29T14:32:51;8.15;;;3.25;;
6598;SDS011;3335;43.198;27.918;2022-07-29T14:35:18;5.03;;;3.00;;
6598;SDS011;3335;43.198;27.918;2022-07-29T14:37:45;9.45;;;3.47;;
6598;SDS011;3335;43.198;27.918;2022-07-29T14:40:13;6.82;;;3.47;;
6598;SDS011;3335;43.198;27.918;2022-07-29T14:42:40;10.68;;;3.70;;
6598;SDS011;3335;43.198;27.918;2022-07-29T14:45:07;5.78;;;3.00;;
6598;SDS011;3335;43.198;27.918;2022-07-29T14:47:35;9.32;;;3.38;;
6598;SDS011;3335;43.198;27.918;2022-07-29T14:50:03;4.28;;;3.35;;
6598;SDS011;3335;43.198;27.918;2022-07-29T14:52:31;5.65;;;3.40;;
6598;SDS011;3335;43.198;27.918;2022-07-29T14:54:58;6.15;;;2.90;;
6598;SDS011;3335;43.198;27.918;2022-07-29T14:57:27;8.18;;;3.63;;
6598;SDS011;3335;43.198;27.918;2022-07-29T14:59:53;5.95;;;3.60;;
6598;SDS011;3335;43.198;27.918;2022-07-29T15:02:21;9.00;;;3.53;;
6598;SDS011;3335;43.198;27.918;2022-07-29T15:04:48;5.20;;;3.20;;
6598;SDS011;3335;43.198;27.918;2022-07-29T15:07:15;6.38;;;3.38;;
6598;SDS011;3335;43.198;27.918;2022-07-29T15:09:42;6.75;;;3.88;;
6598;SDS011;3335;43.198;27.918;2022-07-29T15:12:10;4.28;;;2.90;;
6598;SDS011;3335;43.198;27.918;2022-07-29T15:14:38;9.68;;;3.25;;
6598;SDS011;3335;43.198;27.918;2022-07-29T15:17:05;5.72;;;3.42;;
6598;SDS011;3335;43.198;27.918;2022-07-29T15:19:32;5.50;;;3.50;;
6598;SDS011;3335;43.198;27.918;2022-07-29T15:21:59;7.53;;;3.55;;
6598;SDS011;3335;43.198;27.918;2022-07-29T15:24:26;8.45;;;3.97;;
6598;SDS011;3335;43.198;27.918;2022-07-29T15:26:53;9.55;;;3.75;;